sensor_id;sensor_type;location;lat;lon;timestamp;P1;durP1;ratioP1;P2;durP2;ratioP2
30998;SDS011;20549;50.042;8.968;2023-04-03T00:01:18;1.87;;;1.77;;
30998;SDS011;20549;50.042;8.968;2023-04-03T00:03:44;2.37;;;1.87;;
30998;SDS011;20549;50.042;8.968;2023-04-03T00:06:11;2.17;;;1.77;;
30998;SDS011;20549;50.042;8.968;2023-04-03T00:08:38;4.57;;;2.00;;
30998;SDS011;20549;50.042;8.968;2023-04-03T00:11:04;2.20;;;1.80;;
30998;SDS011;20549;50.042;8.968;2023-04-03T00:13:31;2.07;;;1.93;;
30998;SDS011;20549;50.042;8.968;2023-04-03T00:15:57;1.80;;;1.70;;
30998;SDS011;20549;50.042;8.968;2023-04-03T00:18:24;2.07;;;1.97;;
30998;SDS011;20549;50.042;8.968;2023-04-03T00:20:50;2.27;;;1.70;;
30998;SDS011;20549;50.042;8.968;2023-04-03T00:23:17;2.00;;;1.90;;
30998;SDS011;20549;50.042;8.968;2023-04-03T00:25:44;2.00;;;1.80;;
30998;SDS011;20549;50.042;8.968;2023-04-03T00:28:10;2.13;;;1.83;;
30998;SDS011;20549;50.042;8.968;2023-04-03T00:30:37;3.00;;;2.70;;
30998;SDS011;20549;50.042;8.968;2023-04-03T00:33:03;2.87;;;2.67;;
30998;SDS011;20549;50.042;8.968;2023-04-03T00:35:30;4.27;;;3.00;;
30998;SDS011;20549;50.042;8.968;2023-04-03T00:37:57;4.67;;;2.80;;
30998;SDS011;20549;50.042;8.968;2023-04-03T00:40:24;3.23;;;2.90;;
30998;SDS011;20549;50.042;8.968;2023-04-03T00:42:52;3.30;;;2.70;;
30998;SDS011;20549;50.042;8.968;2023-04-03T00:45:24;3.33;;;2.67;;
30998;SDS011;20549;50.042;8.968;2023-04-03T00:47:51;2.37;;;2.17;;
30998;SDS011;20549;50.042;8.968;2023-04-03T00:50:18;2.20;;;2.00;;
30998;SDS011;20549;50.042;8.968;2023-04-03T00:52:44;1.83;;;1.73;;
30998;SDS011;20549;50.042;8.968;2023-04-03T00:55:11;3.60;;;1.87;;
30998;SDS011;20549;50.042;8.968;2023-04-03T00:57:37;2.43;;;2.23;;
30998;SDS011;20549;50.042;8.968;2023-04-03T01:00:05;2.00;;;1.90;;
30998;SDS011;20549;50.042;8.968;2023-04-03T01:02:31;1.60;;;1.50;;
30998;SDS011;20549;50.042;8.968;2023-04-03T01:04:57;2.50;;;1.83;;
30998;SDS011;20549;50.042;8.968;2023-04-03T01:07:26;1.70;;;1.60;;
30998;SDS011;20549;50.042;8.968;2023-04-03T01:09:56;2.10;;;1.90;;
30998;SDS011;20549;50.042;8.968;2023-04-03T01:12:25;4.17;;;1.90;;
30998;SDS011;20549;50.042;8.968;2023-04-03T01:14:51;2.80;;;1.90;;
30998;SDS011;20549;50.042;8.968;2023-04-03T01:17:27;2.17;;;1.63;;
30998;SDS011;20549;50.042;8.968;2023-04-03T01:20:00;2.63;;;1.77;;
30998;SDS011;20549;50.042;8.968;2023-04-03T01:22:29;2.00;;;1.80;;
30998;SDS011;20549;50.042;8.968;2023-04-03T01:24:54;2.60;;;1.73;;
30998;SDS011;20549;50.042;8.968;2023-04-03T01:27:20;3.23;;;1.73;;
30998;SDS011;20549;50.042;8.968;2023-04-03T01:29:47;1.73;;;1.63;;
30998;SDS011;20549;50.042;8.968;2023-04-03T01:32:13;1.80;;;1.63;;
30998;SDS011;20549;50.042;8.968;2023-04-03T01:34:40;2.10;;;1.77;;
30998;SDS011;20549;50.042;8.968;2023-04-03T01:37:07;1.93;;;1.83;;
30998;SDS011;20549;50.042;8.968;2023-04-03T01:39:33;5.23;;;2.37;;
30998;SDS011;20549;50.042;8.968;2023-04-03T01:42:00;1.80;;;1.70;;
30998;SDS011;20549;50.042;8.968;2023-04-03T01:44:26;1.70;;;1.60;;
30998;SDS011;20549;50.042;8.968;2023-04-03T01:46:53;2.30;;;2.10;;
30998;SDS011;20549;50.042;8.968;2023-04-03T01:49:20;2.60;;;2.10;;
30998;SDS011;20549;50.042;8.968;2023-04-03T01:51:46;2.07;;;1.70;;
30998;SDS011;20549;50.042;8.968;2023-04-03T01:54:13;2.00;;;1.90;;
30998;SDS011;20549;50.042;8.968;2023-04-03T01:56:39;3.10;;;2.27;;
30998;SDS011;20549;50.042;8.968;2023-04-03T01:59:06;2.73;;;1.90;;
30998;SDS011;20549;50.042;8.968;2023-04-03T02:01:32;2.97;;;1.80;;
30998;SDS011;20549;50.042;8.968;2023-04-03T02:03:59;2.83;;;2.30;;
30998;SDS011;20549;50.042;8.968;2023-04-03T02:06:26;2.40;;;2.17;;
30998;SDS011;20549;50.042;8.968;2023-04-03T02:08:52;2.23;;;2.07;;
30998;SDS011;20549;50.042;8.968;2023-04-03T02:11:19;2.57;;;2.20;;
30998;SDS011;20549;50.042;8.968;2023-04-03T02:13:45;3.17;;;1.90;;
30998;SDS011;20549;50.042;8.968;2023-04-03T02:16:12;2.23;;;2.03;;
30998;SDS011;20549;50.042;8.968;2023-04-03T02:18:39;2.30;;;2.00;;
30998;SDS011;20549;50.042;8.968;2023-04-03T02:21:05;3.07;;;2.20;;
30998;SDS011;20549;50.042;8.968;2023-04-03T02:23:32;2.33;;;2.13;;
30998;SDS011;20549;50.042;8.968;2023-04-03T02:26:09;3.23;;;1.93;;
30998;SDS011;20549;50.042;8.968;2023-04-03T02:28:37;2.23;;;2.13;;
30998;SDS011;20549;50.042;8.968;2023-04-03T02:31:04;2.97;;;2.03;;
30998;SDS011;20549;50.042;8.968;2023-04-03T02:33:30;3.40;;;2.50;;
30998;SDS011;20549;50.042;8.968;2023-04-03T02:35:57;2.30;;;2.10;;
30998;SDS011;20549;50.042;8.968;2023-04-03T02:38:23;2.40;;;2.20;;
30998;SDS011;20549;50.042;8.968;2023-04-03T02:40:50;2.20;;;1.93;;
30998;SDS011;20549;50.042;8.968;2023-04-03T02:43:16;3.67;;;2.30;;
30998;SDS011;20549;50.042;8.968;2023-04-03T02:45:43;2.53;;;1.90;;
30998;SDS011;20549;50.042;8.968;2023-04-03T02:48:09;2.23;;;2.03;;
30998;SDS011;20549;50.042;8.968;2023-04-03T02:50:36;1.93;;;1.83;;
30998;SDS011;20549;50.042;8.968;2023-04-03T02:53:03;2.63;;;2.30;;
30998;SDS011;20549;50.042;8.968;2023-04-03T02:55:29;3.00;;;2.03;;
30998;SDS011;20549;50.042;8.968;2023-04-03T02:57:56;2.27;;;2.07;;
30998;SDS011;20549;50.042;8.968;2023-04-03T03:00:22;1.93;;;1.83;;
30998;SDS011;20549;50.042;8.968;2023-04-03T03:02:49;2.00;;;1.90;;
30998;SDS011;20549;50.042;8.968;2023-04-03T03:05:16;2.53;;;1.90;;
30998;SDS011;20549;50.042;8.968;2023-04-03T03:07:42;4.13;;;2.20;;
30998;SDS011;20549;50.042;8.968;2023-04-03T03:10:09;3.37;;;1.97;;
30998;SDS011;20549;50.042;8.968;2023-04-03T03:12:35;2.03;;;1.93;;
30998;SDS011;20549;50.042;8.968;2023-04-03T03:15:02;3.43;;;1.60;;
30998;SDS011;20549;50.042;8.968;2023-04-03T03:17:29;3.40;;;2.20;;
30998;SDS011;20549;50.042;8.968;2023-04-03T03:19:55;1.77;;;1.67;;
30998;SDS011;20549;50.042;8.968;2023-04-03T03:22:22;2.10;;;2.00;;
30998;SDS011;20549;50.042;8.968;2023-04-03T03:24:48;1.90;;;1.67;;
30998;SDS011;20549;50.042;8.968;2023-04-03T03:27:15;2.90;;;1.90;;
30998;SDS011;20549;50.042;8.968;2023-04-03T03:29:42;6.00;;;1.87;;
30998;SDS011;20549;50.042;8.968;2023-04-03T03:32:08;2.17;;;1.80;;
30998;SDS011;20549;50.042;8.968;2023-04-03T03:34:35;2.00;;;1.70;;
30998;SDS011;20549;50.042;8.968;2023-04-03T03:37:01;2.90;;;1.80;;
30998;SDS011;20549;50.042;8.968;2023-04-03T03:39:28;2.23;;;1.73;;
30998;SDS011;20549;50.042;8.968;2023-04-03T03:41:54;3.17;;;1.90;;
30998;SDS011;20549;50.042;8.968;2023-04-03T03:44:21;3.03;;;2.20;;
30998;SDS011;20549;50.042;8.968;2023-04-03T03:46:48;1.80;;;1.70;;
30998;SDS011;20549;50.042;8.968;2023-04-03T03:49:14;2.70;;;1.97;;
30998;SDS011;20549;50.042;8.968;2023-04-03T03:51:41;2.20;;;1.80;;
30998;SDS011;20549;50.042;8.968;2023-04-03T03:54:07;1.77;;;1.60;;
30998;SDS011;20549;50.042;8.968;2023-04-03T03:56:34;2.20;;;1.87;;
30998;SDS011;20549;50.042;8.968;2023-04-03T03:59:00;2.43;;;1.83;;
30998;SDS011;20549;50.042;8.968;2023-04-03T04:01:27;2.23;;;1.57;;
30998;SDS011;20549;50.042;8.968;2023-04-03T04:03:54;1.33;;;1.23;;
30998;SDS011;20549;50.042;8.968;2023-04-03T04:06:20;1.73;;;1.50;;
30998;SDS011;20549;50.042;8.968;2023-04-03T04:08:47;4.63;;;2.03;;
30998;SDS011;20549;50.042;8.968;2023-04-03T04:11:13;2.87;;;1.70;;
30998;SDS011;20549;50.042;8.968;2023-04-03T04:13:40;2.07;;;1.60;;
30998;SDS011;20549;50.042;8.968;2023-04-03T04:16:07;2.70;;;1.70;;
30998;SDS011;20549;50.042;8.968;2023-04-03T04:18:33;2.83;;;2.00;;
30998;SDS011;20549;50.042;8.968;2023-04-03T04:21:00;1.40;;;1.30;;
30998;SDS011;20549;50.042;8.968;2023-04-03T04:23:26;2.67;;;1.60;;
30998;SDS011;20549;50.042;8.968;2023-04-03T04:25:53;2.87;;;1.60;;
30998;SDS011;20549;50.042;8.968;2023-04-03T04:28:19;2.73;;;1.53;;
30998;SDS011;20549;50.042;8.968;2023-04-03T04:30:46;1.83;;;1.57;;
30998;SDS011;20549;50.042;8.968;2023-04-03T04:33:13;1.30;;;1.20;;
30998;SDS011;20549;50.042;8.968;2023-04-03T04:35:40;3.83;;;1.50;;
30998;SDS011;20549;50.042;8.968;2023-04-03T04:38:06;3.70;;;1.77;;
30998;SDS011;20549;50.042;8.968;2023-04-03T04:40:32;2.07;;;1.70;;
30998;SDS011;20549;50.042;8.968;2023-04-03T04:42:59;2.97;;;2.00;;
30998;SDS011;20549;50.042;8.968;2023-04-03T04:45:26;1.93;;;1.50;;
30998;SDS011;20549;50.042;8.968;2023-04-03T04:47:54;3.17;;;1.83;;
30998;SDS011;20549;50.042;8.968;2023-04-03T04:50:19;4.20;;;1.60;;
30998;SDS011;20549;50.042;8.968;2023-04-03T04:52:45;3.70;;;2.17;;
30998;SDS011;20549;50.042;8.968;2023-04-03T04:55:12;4.00;;;1.93;;
30998;SDS011;20549;50.042;8.968;2023-04-03T04:57:38;2.00;;;1.43;;
30998;SDS011;20549;50.042;8.968;2023-04-03T05:00:05;1.30;;;1.20;;
30998;SDS011;20549;50.042;8.968;2023-04-03T05:02:32;4.87;;;1.83;;
30998;SDS011;20549;50.042;8.968;2023-04-03T05:04:58;2.37;;;1.70;;
30998;SDS011;20549;50.042;8.968;2023-04-03T05:07:25;2.67;;;1.60;;
30998;SDS011;20549;50.042;8.968;2023-04-03T05:09:51;2.23;;;1.60;;
30998;SDS011;20549;50.042;8.968;2023-04-03T05:12:18;3.00;;;1.90;;
30998;SDS011;20549;50.042;8.968;2023-04-03T05:14:45;3.00;;;1.60;;
30998;SDS011;20549;50.042;8.968;2023-04-03T05:17:11;3.60;;;2.03;;
30998;SDS011;20549;50.042;8.968;2023-04-03T05:19:38;3.03;;;1.93;;
30998;SDS011;20549;50.042;8.968;2023-04-03T05:22:04;4.60;;;2.10;;
30998;SDS011;20549;50.042;8.968;2023-04-03T05:24:31;3.83;;;2.23;;
30998;SDS011;20549;50.042;8.968;2023-04-03T05:26:58;3.10;;;1.80;;
30998;SDS011;20549;50.042;8.968;2023-04-03T05:29:24;1.90;;;1.80;;
30998;SDS011;20549;50.042;8.968;2023-04-03T05:31:51;2.80;;;1.73;;
30998;SDS011;20549;50.042;8.968;2023-04-03T05:34:17;3.53;;;2.03;;
30998;SDS011;20549;50.042;8.968;2023-04-03T05:36:44;2.73;;;1.70;;
30998;SDS011;20549;50.042;8.968;2023-04-03T05:39:10;2.67;;;1.80;;
30998;SDS011;20549;50.042;8.968;2023-04-03T05:41:37;3.13;;;1.83;;
30998;SDS011;20549;50.042;8.968;2023-04-03T05:44:04;2.70;;;1.70;;
30998;SDS011;20549;50.042;8.968;2023-04-03T05:46:30;2.60;;;1.80;;
30998;SDS011;20549;50.042;8.968;2023-04-03T05:48:57;3.50;;;2.00;;
30998;SDS011;20549;50.042;8.968;2023-04-03T05:51:25;4.27;;;1.93;;
30998;SDS011;20549;50.042;8.968;2023-04-03T05:53:51;5.43;;;2.43;;
30998;SDS011;20549;50.042;8.968;2023-04-03T05:56:17;4.23;;;2.20;;
30998;SDS011;20549;50.042;8.968;2023-04-03T05:58:43;4.17;;;2.50;;
30998;SDS011;20549;50.042;8.968;2023-04-03T06:01:10;4.13;;;1.83;;
30998;SDS011;20549;50.042;8.968;2023-04-03T06:03:36;3.83;;;2.00;;
30998;SDS011;20549;50.042;8.968;2023-04-03T06:06:04;3.67;;;2.43;;
30998;SDS011;20549;50.042;8.968;2023-04-03T06:08:29;3.10;;;2.20;;
30998;SDS011;20549;50.042;8.968;2023-04-03T06:10:56;3.43;;;1.70;;
30998;SDS011;20549;50.042;8.968;2023-04-03T06:13:23;2.73;;;1.77;;
30998;SDS011;20549;50.042;8.968;2023-04-03T06:15:49;4.97;;;1.87;;
30998;SDS011;20549;50.042;8.968;2023-04-03T06:18:16;2.80;;;1.73;;
30998;SDS011;20549;50.042;8.968;2023-04-03T06:20:42;3.87;;;1.80;;
30998;SDS011;20549;50.042;8.968;2023-04-03T06:23:09;1.70;;;1.27;;
30998;SDS011;20549;50.042;8.968;2023-04-03T06:25:36;2.35;;;1.65;;
30998;SDS011;20549;50.042;8.968;2023-04-03T06:28:02;2.75;;;1.52;;
30998;SDS011;20549;50.042;8.968;2023-04-03T06:30:29;2.25;;;1.60;;
30998;SDS011;20549;50.042;8.968;2023-04-03T06:32:55;2.52;;;1.57;;
30998;SDS011;20549;50.042;8.968;2023-04-03T06:35:22;2.25;;;1.77;;
30998;SDS011;20549;50.042;8.968;2023-04-03T06:37:49;3.35;;;1.70;;
30998;SDS011;20549;50.042;8.968;2023-04-03T06:40:18;1.90;;;1.60;;
30998;SDS011;20549;50.042;8.968;2023-04-03T06:42:42;1.92;;;1.70;;
30998;SDS011;20549;50.042;8.968;2023-04-03T06:45:08;2.60;;;1.70;;
30998;SDS011;20549;50.042;8.968;2023-04-03T06:47:35;1.85;;;1.60;;
30998;SDS011;20549;50.042;8.968;2023-04-03T06:50:02;2.92;;;1.65;;
30998;SDS011;20549;50.042;8.968;2023-04-03T06:52:28;3.40;;;1.67;;
30998;SDS011;20549;50.042;8.968;2023-04-03T06:54:55;3.67;;;1.70;;
30998;SDS011;20549;50.042;8.968;2023-04-03T06:57:21;4.72;;;1.80;;
30998;SDS011;20549;50.042;8.968;2023-04-03T06:59:48;3.20;;;2.17;;
30998;SDS011;20549;50.042;8.968;2023-04-03T07:02:14;4.08;;;2.35;;
30998;SDS011;20549;50.042;8.968;2023-04-03T07:04:41;3.83;;;1.90;;
30998;SDS011;20549;50.042;8.968;2023-04-03T07:07:08;3.50;;;1.67;;
30998;SDS011;20549;50.042;8.968;2023-04-03T07:09:34;3.65;;;1.77;;
30998;SDS011;20549;50.042;8.968;2023-04-03T07:12:01;3.15;;;1.80;;
30998;SDS011;20549;50.042;8.968;2023-04-03T07:14:27;2.55;;;1.50;;
30998;SDS011;20549;50.042;8.968;2023-04-03T07:16:54;3.15;;;1.72;;
30998;SDS011;20549;50.042;8.968;2023-04-03T07:19:21;3.25;;;1.67;;
30998;SDS011;20549;50.042;8.968;2023-04-03T07:21:47;2.83;;;1.80;;
30998;SDS011;20549;50.042;8.968;2023-04-03T07:24:14;2.33;;;1.67;;
30998;SDS011;20549;50.042;8.968;2023-04-03T07:26:40;3.35;;;1.35;;
30998;SDS011;20549;50.042;8.968;2023-04-03T07:29:07;3.50;;;1.70;;
30998;SDS011;20549;50.042;8.968;2023-04-03T07:31:34;3.67;;;2.15;;
30998;SDS011;20549;50.042;8.968;2023-04-03T07:34:00;2.33;;;1.77;;
30998;SDS011;20549;50.042;8.968;2023-04-03T07:36:27;2.22;;;1.55;;
30998;SDS011;20549;50.042;8.968;2023-04-03T07:38:53;2.35;;;1.52;;
30998;SDS011;20549;50.042;8.968;2023-04-03T07:41:20;2.00;;;1.50;;
30998;SDS011;20549;50.042;8.968;2023-04-03T07:43:46;4.30;;;1.52;;
30998;SDS011;20549;50.042;8.968;2023-04-03T07:46:13;2.35;;;1.47;;
30998;SDS011;20549;50.042;8.968;2023-04-03T07:48:40;5.15;;;1.82;;
30998;SDS011;20549;50.042;8.968;2023-04-03T07:51:06;2.12;;;1.35;;
30998;SDS011;20549;50.042;8.968;2023-04-03T07:53:33;1.77;;;1.20;;
30998;SDS011;20549;50.042;8.968;2023-04-03T07:55:59;2.15;;;1.50;;
30998;SDS011;20549;50.042;8.968;2023-04-03T07:58:26;2.12;;;1.55;;
30998;SDS011;20549;50.042;8.968;2023-04-03T08:00:53;1.67;;;1.35;;
30998;SDS011;20549;50.042;8.968;2023-04-03T08:03:19;4.15;;;2.40;;
30998;SDS011;20549;50.042;8.968;2023-04-03T08:05:46;1.57;;;1.25;;
30998;SDS011;20549;50.042;8.968;2023-04-03T08:08:13;2.80;;;1.40;;
30998;SDS011;20549;50.042;8.968;2023-04-03T08:10:39;3.20;;;1.57;;
30998;SDS011;20549;50.042;8.968;2023-04-03T08:13:06;1.98;;;1.52;;
30998;SDS011;20549;50.042;8.968;2023-04-03T08:15:32;3.17;;;1.50;;
30998;SDS011;20549;50.042;8.968;2023-04-03T08:17:59;2.87;;;1.70;;
30998;SDS011;20549;50.042;8.968;2023-04-03T08:20:26;1.42;;;1.17;;
30998;SDS011;20549;50.042;8.968;2023-04-03T08:22:52;4.85;;;1.52;;
30998;SDS011;20549;50.042;8.968;2023-04-03T08:25:18;2.27;;;1.07;;
30998;SDS011;20549;50.042;8.968;2023-04-03T08:27:45;1.98;;;1.45;;
30998;SDS011;20549;50.042;8.968;2023-04-03T08:30:12;2.02;;;1.10;;
30998;SDS011;20549;50.042;8.968;2023-04-03T08:32:38;4.33;;;1.90;;
30998;SDS011;20549;50.042;8.968;2023-04-03T08:35:05;1.65;;;1.27;;
30998;SDS011;20549;50.042;8.968;2023-04-03T08:37:34;2.40;;;1.47;;
30998;SDS011;20549;50.042;8.968;2023-04-03T08:39:58;1.50;;;1.22;;
30998;SDS011;20549;50.042;8.968;2023-04-03T08:45:14;2.10;;;1.10;;
30998;SDS011;20549;50.042;8.968;2023-04-03T08:48:43;1.52;;;1.10;;
30998;SDS011;20549;50.042;8.968;2023-04-03T08:50:28;4.25;;;1.37;;
30998;SDS011;20549;50.042;8.968;2023-04-03T08:52:56;1.30;;;1.20;;
30998;SDS011;20549;50.042;8.968;2023-04-03T08:55:31;2.87;;;1.87;;
30998;SDS011;20549;50.042;8.968;2023-04-03T08:58:04;1.45;;;0.93;;
30998;SDS011;20549;50.042;8.968;2023-04-03T09:00:28;1.32;;;1.22;;
30998;SDS011;20549;50.042;8.968;2023-04-03T09:02:54;1.77;;;1.22;;
30998;SDS011;20549;50.042;8.968;2023-04-03T09:05:34;1.98;;;1.47;;
30998;SDS011;20549;50.042;8.968;2023-04-03T09:10:41;2.92;;;1.60;;
30998;SDS011;20549;50.042;8.968;2023-04-03T09:13:19;2.00;;;1.50;;
30998;SDS011;20549;50.042;8.968;2023-04-03T09:15:40;3.90;;;1.40;;
30998;SDS011;20549;50.042;8.968;2023-04-03T09:20:46;1.98;;;1.30;;
30998;SDS011;20549;50.042;8.968;2023-04-03T09:23:30;2.95;;;1.30;;
30998;SDS011;20549;50.042;8.968;2023-04-03T09:26:05;1.70;;;1.32;;
30998;SDS011;20549;50.042;8.968;2023-04-03T09:28:35;1.82;;;1.35;;
30998;SDS011;20549;50.042;8.968;2023-04-03T09:31:00;2.33;;;1.30;;
30998;SDS011;20549;50.042;8.968;2023-04-03T09:33:27;1.52;;;1.20;;
30998;SDS011;20549;50.042;8.968;2023-04-03T09:35:54;1.98;;;1.45;;
30998;SDS011;20549;50.042;8.968;2023-04-03T09:38:21;2.33;;;1.40;;
30998;SDS011;20549;50.042;8.968;2023-04-03T09:40:48;2.08;;;1.87;;
30998;SDS011;20549;50.042;8.968;2023-04-03T09:45:43;2.75;;;1.70;;
30998;SDS011;20549;50.042;8.968;2023-04-03T09:50:52;5.40;;;1.70;;
30998;SDS011;20549;50.042;8.968;2023-04-03T09:53:51;1.72;;;1.45;;
30998;SDS011;20549;50.042;8.968;2023-04-03T09:58:50;1.70;;;1.30;;
30998;SDS011;20549;50.042;8.968;2023-04-03T10:01:26;1.80;;;1.65;;
30998;SDS011;20549;50.042;8.968;2023-04-03T10:06:43;3.30;;;1.47;;
30998;SDS011;20549;50.042;8.968;2023-04-03T10:09:28;1.57;;;1.27;;
30998;SDS011;20549;50.042;8.968;2023-04-03T10:11:58;1.77;;;1.40;;
30998;SDS011;20549;50.042;8.968;2023-04-03T10:14:22;2.47;;;1.62;;
30998;SDS011;20549;50.042;8.968;2023-04-03T10:16:55;2.27;;;1.40;;
30998;SDS011;20549;50.042;8.968;2023-04-03T10:19:35;2.10;;;1.50;;
30998;SDS011;20549;50.042;8.968;2023-04-03T10:24:57;2.37;;;1.40;;
30998;SDS011;20549;50.042;8.968;2023-04-03T10:27:26;3.00;;;1.70;;
30998;SDS011;20549;50.042;8.968;2023-04-03T10:30:02;5.63;;;2.00;;
30998;SDS011;20549;50.042;8.968;2023-04-03T10:32:53;2.43;;;1.63;;
30998;SDS011;20549;50.042;8.968;2023-04-03T10:35:31;2.93;;;2.07;;
30998;SDS011;20549;50.042;8.968;2023-04-03T10:37:58;3.03;;;1.73;;
30998;SDS011;20549;50.042;8.968;2023-04-03T10:40:32;2.50;;;1.43;;
30998;SDS011;20549;50.042;8.968;2023-04-03T10:50:57;1.50;;;1.40;;
30998;SDS011;20549;50.042;8.968;2023-04-03T10:53:30;2.70;;;2.07;;
30998;SDS011;20549;50.042;8.968;2023-04-03T10:56:01;1.50;;;1.40;;
30998;SDS011;20549;50.042;8.968;2023-04-03T10:58:34;4.33;;;1.87;;
30998;SDS011;20549;50.042;8.968;2023-04-03T11:01:03;2.13;;;1.70;;
30998;SDS011;20549;50.042;8.968;2023-04-03T11:03:41;2.40;;;1.50;;
30998;SDS011;20549;50.042;8.968;2023-04-03T11:06:13;1.50;;;1.40;;
30998;SDS011;20549;50.042;8.968;2023-04-03T11:08:44;1.90;;;1.40;;
30998;SDS011;20549;50.042;8.968;2023-04-03T11:11:09;2.37;;;1.70;;
30998;SDS011;20549;50.042;8.968;2023-04-03T11:13:37;1.97;;;1.57;;
30998;SDS011;20549;50.042;8.968;2023-04-03T11:16:02;1.67;;;1.57;;
30998;SDS011;20549;50.042;8.968;2023-04-03T11:21:06;2.53;;;1.50;;
30998;SDS011;20549;50.042;8.968;2023-04-03T11:23:33;1.60;;;1.00;;
30998;SDS011;20549;50.042;8.968;2023-04-03T11:26:36;1.53;;;1.30;;
30998;SDS011;20549;50.042;8.968;2023-04-03T11:28:38;2.07;;;1.20;;
30998;SDS011;20549;50.042;8.968;2023-04-03T11:31:11;2.63;;;1.20;;
30998;SDS011;20549;50.042;8.968;2023-04-03T11:33:49;2.47;;;1.80;;
30998;SDS011;20549;50.042;8.968;2023-04-03T11:36:25;1.87;;;1.47;;
30998;SDS011;20549;50.042;8.968;2023-04-03T11:38:52;1.63;;;1.30;;
30998;SDS011;20549;50.042;8.968;2023-04-03T11:41:18;2.30;;;1.30;;
30998;SDS011;20549;50.042;8.968;2023-04-03T11:44:00;1.20;;;1.10;;
30998;SDS011;20549;50.042;8.968;2023-04-03T12:00:45;2.07;;;1.50;;
30998;SDS011;20549;50.042;8.968;2023-04-03T12:05:49;3.47;;;1.43;;
30998;SDS011;20549;50.042;8.968;2023-04-03T12:08:21;1.67;;;1.33;;
30998;SDS011;20549;50.042;8.968;2023-04-03T12:10:42;2.17;;;1.40;;
30998;SDS011;20549;50.042;8.968;2023-04-03T12:13:15;2.30;;;1.47;;
30998;SDS011;20549;50.042;8.968;2023-04-03T12:15:44;2.87;;;1.43;;
30998;SDS011;20549;50.042;8.968;2023-04-03T12:21:05;3.20;;;1.60;;
30998;SDS011;20549;50.042;8.968;2023-04-03T12:23:36;2.03;;;1.37;;
30998;SDS011;20549;50.042;8.968;2023-04-03T12:26:03;1.60;;;1.37;;
30998;SDS011;20549;50.042;8.968;2023-04-03T12:28:37;2.97;;;1.63;;
30998;SDS011;20549;50.042;8.968;2023-04-03T12:31:03;1.30;;;1.20;;
30998;SDS011;20549;50.042;8.968;2023-04-03T12:36:33;1.40;;;1.30;;
30998;SDS011;20549;50.042;8.968;2023-04-03T12:44:25;1.63;;;1.33;;
30998;SDS011;20549;50.042;8.968;2023-04-03T12:46:50;1.93;;;1.17;;
30998;SDS011;20549;50.042;8.968;2023-04-03T12:52:16;1.93;;;1.40;;
30998;SDS011;20549;50.042;8.968;2023-04-03T12:54:38;1.63;;;1.37;;
30998;SDS011;20549;50.042;8.968;2023-04-03T12:57:11;2.30;;;1.90;;
30998;SDS011;20549;50.042;8.968;2023-04-03T12:59:52;1.93;;;1.30;;
30998;SDS011;20549;50.042;8.968;2023-04-03T13:02:28;1.87;;;1.43;;
30998;SDS011;20549;50.042;8.968;2023-04-03T13:04:57;1.60;;;1.30;;
30998;SDS011;20549;50.042;8.968;2023-04-03T13:07:21;1.63;;;1.43;;
30998;SDS011;20549;50.042;8.968;2023-04-03T13:09:55;2.03;;;1.40;;
30998;SDS011;20549;50.042;8.968;2023-04-03T13:12:14;1.47;;;1.37;;
30998;SDS011;20549;50.042;8.968;2023-04-03T13:14:50;1.43;;;1.20;;
30998;SDS011;20549;50.042;8.968;2023-04-03T13:17:11;3.60;;;1.73;;
30998;SDS011;20549;50.042;8.968;2023-04-03T13:19:36;1.80;;;1.30;;
30998;SDS011;20549;50.042;8.968;2023-04-03T13:22:07;1.47;;;1.33;;
30998;SDS011;20549;50.042;8.968;2023-04-03T13:24:33;1.63;;;1.53;;
30998;SDS011;20549;50.042;8.968;2023-04-03T13:26:59;1.40;;;1.30;;
30998;SDS011;20549;50.042;8.968;2023-04-03T13:29:29;3.67;;;1.40;;
30998;SDS011;20549;50.042;8.968;2023-04-03T13:31:53;3.60;;;2.00;;
30998;SDS011;20549;50.042;8.968;2023-04-03T13:34:19;1.90;;;1.70;;
30998;SDS011;20549;50.042;8.968;2023-04-03T13:41:49;2.63;;;1.87;;
30998;SDS011;20549;50.042;8.968;2023-04-03T13:46:50;1.87;;;1.73;;
30998;SDS011;20549;50.042;8.968;2023-04-03T13:49:41;8.67;;;2.00;;
30998;SDS011;20549;50.042;8.968;2023-04-03T13:51:45;2.63;;;1.90;;
30998;SDS011;20549;50.042;8.968;2023-04-03T13:56:52;1.77;;;1.67;;
30998;SDS011;20549;50.042;8.968;2023-04-03T14:01:44;2.33;;;2.00;;
30998;SDS011;20549;50.042;8.968;2023-04-03T14:04:15;2.73;;;2.30;;
30998;SDS011;20549;50.042;8.968;2023-04-03T14:06:39;2.77;;;2.30;;
30998;SDS011;20549;50.042;8.968;2023-04-03T14:09:06;6.13;;;2.40;;
30998;SDS011;20549;50.042;8.968;2023-04-03T14:11:33;2.20;;;2.00;;
30998;SDS011;20549;50.042;8.968;2023-04-03T14:14:00;2.40;;;2.07;;
30998;SDS011;20549;50.042;8.968;2023-04-03T14:16:29;2.60;;;2.20;;
30998;SDS011;20549;50.042;8.968;2023-04-03T14:18:55;2.80;;;2.20;;
30998;SDS011;20549;50.042;8.968;2023-04-03T14:21:22;2.00;;;1.63;;
30998;SDS011;20549;50.042;8.968;2023-04-03T14:23:48;3.00;;;2.30;;
30998;SDS011;20549;50.042;8.968;2023-04-03T14:26:18;2.20;;;1.63;;
30998;SDS011;20549;50.042;8.968;2023-04-03T14:28:45;3.57;;;2.27;;
30998;SDS011;20549;50.042;8.968;2023-04-03T14:31:11;3.23;;;1.93;;
30998;SDS011;20549;50.042;8.968;2023-04-03T14:33:37;2.00;;;1.80;;
30998;SDS011;20549;50.042;8.968;2023-04-03T14:36:14;2.20;;;1.70;;
30998;SDS011;20549;50.042;8.968;2023-04-03T14:38:36;1.90;;;1.70;;
30998;SDS011;20549;50.042;8.968;2023-04-03T14:41:03;2.10;;;1.80;;
30998;SDS011;20549;50.042;8.968;2023-04-03T14:43:29;3.73;;;2.07;;
30998;SDS011;20549;50.042;8.968;2023-04-03T14:45:56;3.33;;;2.30;;
30998;SDS011;20549;50.042;8.968;2023-04-03T14:48:24;1.53;;;1.43;;
30998;SDS011;20549;50.042;8.968;2023-04-03T14:50:50;2.17;;;1.70;;
30998;SDS011;20549;50.042;8.968;2023-04-03T14:53:16;1.60;;;1.50;;
30998;SDS011;20549;50.042;8.968;2023-04-03T14:55:44;2.70;;;1.63;;
30998;SDS011;20549;50.042;8.968;2023-04-03T14:58:13;4.23;;;2.00;;
30998;SDS011;20549;50.042;8.968;2023-04-03T15:00:38;2.60;;;1.50;;
30998;SDS011;20549;50.042;8.968;2023-04-03T15:03:05;1.70;;;1.60;;
30998;SDS011;20549;50.042;8.968;2023-04-03T15:05:31;2.37;;;1.70;;
30998;SDS011;20549;50.042;8.968;2023-04-03T15:07:58;3.30;;;1.40;;
30998;SDS011;20549;50.042;8.968;2023-04-03T15:10:28;1.20;;;1.17;;
30998;SDS011;20549;50.042;8.968;2023-04-03T15:12:54;1.40;;;1.30;;
30998;SDS011;20549;50.042;8.968;2023-04-03T15:15:21;1.40;;;1.30;;
30998;SDS011;20549;50.042;8.968;2023-04-03T15:17:55;1.30;;;1.20;;
30998;SDS011;20549;50.042;8.968;2023-04-03T15:20:15;1.60;;;1.20;;
30998;SDS011;20549;50.042;8.968;2023-04-03T15:22:43;2.20;;;1.47;;
30998;SDS011;20549;50.042;8.968;2023-04-03T15:25:10;4.50;;;1.27;;
30998;SDS011;20549;50.042;8.968;2023-04-03T15:27:36;1.70;;;1.60;;
30998;SDS011;20549;50.042;8.968;2023-04-03T15:30:03;2.87;;;1.37;;
30998;SDS011;20549;50.042;8.968;2023-04-03T15:32:29;1.43;;;1.00;;
30998;SDS011;20549;50.042;8.968;2023-04-03T15:34:56;1.87;;;1.37;;
30998;SDS011;20549;50.042;8.968;2023-04-03T15:37:23;1.40;;;1.30;;
30998;SDS011;20549;50.042;8.968;2023-04-03T15:39:49;1.63;;;1.40;;
30998;SDS011;20549;50.042;8.968;2023-04-03T15:42:16;1.63;;;1.20;;
30998;SDS011;20549;50.042;8.968;2023-04-03T15:44:42;2.67;;;1.33;;
30998;SDS011;20549;50.042;8.968;2023-04-03T15:47:09;1.90;;;1.50;;
30998;SDS011;20549;50.042;8.968;2023-04-03T15:49:36;2.67;;;1.20;;
30998;SDS011;20549;50.042;8.968;2023-04-03T15:52:02;1.20;;;1.10;;
30998;SDS011;20549;50.042;8.968;2023-04-03T15:54:29;2.60;;;1.30;;
30998;SDS011;20549;50.042;8.968;2023-04-03T15:56:55;1.60;;;1.43;;
30998;SDS011;20549;50.042;8.968;2023-04-03T15:59:22;1.27;;;1.10;;
30998;SDS011;20549;50.042;8.968;2023-04-03T16:01:49;1.83;;;1.47;;
30998;SDS011;20549;50.042;8.968;2023-04-03T16:04:15;1.33;;;1.17;;
30998;SDS011;20549;50.042;8.968;2023-04-03T16:06:42;1.20;;;1.10;;